Terminal Aerodrome Forecast
Issued by NWS

Home | Current Version | Previous Version | Text Only | Print | Product List | Glossary On
Versions: 1 2 3 4 5 6 7 8 9 10 11 12 13 14 15 16 17 18 19 20 21 22 23 24 25 26 27 28 29 30
000
FTAK31 PANC 052028 AAA
TAFADQ
TAF AMD
PADQ 052028Z 0520/0618 11011KT P6SM -RA SCT007 OVC015
      TEMPO 0520/0524 3SM -RA BR BKN007
     FM061200 07015G22KT 4SM -RA BR BKN008 OVC015=

USA.gov is the U.S. government's official web portal to all federal, state and local government web resources and services.